createdAt,value
2022-12-11T00:02:04.462Z,-0.50
2022-12-11T00:05:28.461Z,-0.50
2022-12-11T00:08:54.961Z,-0.50
2022-12-11T00:12:17.945Z,-0.50
2022-12-11T00:15:40.870Z,-0.50
2022-12-11T00:19:04.118Z,-0.50
2022-12-11T00:22:27.094Z,-0.40
2022-12-11T00:25:51.420Z,-0.40
2022-12-11T00:29:15.265Z,-0.40
2022-12-11T00:32:38.209Z,-0.40
2022-12-11T00:36:01.523Z,-0.40
2022-12-11T00:39:24.541Z,-0.40
2022-12-11T00:42:48.866Z,-0.40
2022-12-11T00:46:12.357Z,-0.40
2022-12-11T00:49:35.325Z,-0.40
2022-12-11T00:52:58.291Z,-0.40
2022-12-11T00:56:22.960Z,-0.50
2022-12-11T00:59:47.535Z,-0.50
2022-12-11T01:03:12.082Z,-0.40
2022-12-11T01:06:35.166Z,-0.50
2022-12-11T01:10:15.996Z,-0.50
2022-12-11T01:13:39.866Z,-0.50
2022-12-11T01:17:04.414Z,-0.50
2022-12-11T01:20:28.762Z,-0.50
2022-12-11T01:23:51.769Z,-0.50
2022-12-11T01:27:14.811Z,-0.50
2022-12-11T01:30:38.309Z,-0.40
2022-12-11T01:34:02.739Z,-0.50
2022-12-11T01:37:25.922Z,-0.50
2022-12-11T01:40:49.768Z,-0.50
2022-12-11T01:44:46.156Z,-0.50
2022-12-11T01:48:12.326Z,-0.50
2022-12-11T01:51:40.496Z,-0.50
2022-12-11T01:55:04.828Z,-0.50
2022-12-11T01:58:30.877Z,-0.50
2022-12-11T02:01:59.893Z,-0.40
2022-12-11T02:05:22.993Z,-0.40
2022-12-11T02:08:47.352Z,-0.40
2022-12-11T02:12:17.677Z,-0.40
2022-12-11T02:15:48.011Z,-0.30
2022-12-11T02:19:27.708Z,-0.30
2022-12-11T02:23:08.011Z,-0.30
2022-12-11T02:26:48.113Z,-0.30
2022-12-11T02:30:14.863Z,-0.30
2022-12-11T02:33:42.324Z,-0.30
2022-12-11T02:37:10.637Z,-0.30
2022-12-11T02:40:37.818Z,-0.30
2022-12-11T02:44:03.491Z,-0.30
2022-12-11T02:47:30.391Z,-0.30
2022-12-11T02:50:59.160Z,-0.30
2022-12-11T02:54:26.645Z,-0.30
2022-12-11T02:57:53.922Z,-0.30
2022-12-11T03:01:17.304Z,-0.30
2022-12-11T03:04:42.992Z,-0.30
2022-12-11T03:08:06.295Z,-0.30
2022-12-11T03:11:29.320Z,-0.30
2022-12-11T03:14:52.492Z,-0.30
2022-12-11T03:18:20.674Z,-0.30
2022-12-11T03:21:53.086Z,-0.20
2022-12-11T03:25:21.758Z,-0.20
2022-12-11T03:28:49.181Z,-0.20
2022-12-11T03:32:15.632Z,-0.20
2022-12-11T03:35:41.573Z,-0.20
2022-12-11T03:39:11.791Z,-0.20
2022-12-11T03:42:36.148Z,-0.20
2022-12-11T03:46:00.732Z,-0.20
2022-12-11T03:49:27.081Z,-0.20
2022-12-11T03:52:51.415Z,-0.20
2022-12-11T03:56:27.621Z,-0.20
2022-12-11T03:59:51.729Z,-0.20
2022-12-11T04:03:15.095Z,-0.20
2022-12-11T04:06:38.145Z,-0.20
2022-12-11T04:11:01.660Z,-0.20
2022-12-11T04:15:41.183Z,-0.20
2022-12-11T04:19:25.613Z,-0.10
2022-12-11T04:23:08.262Z,-0.10
2022-12-11T04:26:31.272Z,-0.10
2022-12-11T04:29:55.547Z,-0.10
2022-12-11T04:33:18.527Z,-0.10
2022-12-11T04:36:41.474Z,-0.10
2022-12-11T04:40:05.873Z,-0.10
2022-12-11T04:43:29.050Z,-0.10
2022-12-11T04:46:53.477Z,-0.10
2022-12-11T04:50:17.312Z,-0.10
2022-12-11T04:53:40.353Z,-0.10
2022-12-11T04:57:03.315Z,-0.10
2022-12-11T05:00:27.128Z,-0.10
2022-12-11T05:03:51.910Z,-0.10
2022-12-11T05:07:14.897Z,-0.10
2022-12-11T05:10:37.809Z,-0.10
2022-12-11T05:14:00.766Z,-0.10
2022-12-11T05:17:24.013Z,-0.10
2022-12-11T05:20:56.518Z,-0.10
2022-12-11T05:24:19.469Z,-0.10
2022-12-11T05:27:42.412Z,-0.10
2022-12-11T05:31:08.494Z,-0.10
2022-12-11T05:34:31.454Z,-0.10
2022-12-11T05:37:55.800Z,0.00
2022-12-11T05:41:20.927Z,0.00
2022-12-11T05:44:43.912Z,0.00
2022-12-11T05:48:07.317Z,0.00
2022-12-11T05:51:33.770Z,0.00
2022-12-11T05:54:58.101Z,0.00
2022-12-11T05:58:21.096Z,0.00
2022-12-11T06:01:44.648Z,0.00
2022-12-11T06:05:08.458Z,0.00
2022-12-11T06:08:32.129Z,0.00
2022-12-11T06:11:56.479Z,0.00
2022-12-11T06:15:19.534Z,0.00
2022-12-11T06:18:44.536Z,0.10
2022-12-11T06:22:07.479Z,0.00
2022-12-11T06:25:30.939Z,0.00
2022-12-11T06:28:55.337Z,0.00
2022-12-11T06:32:18.292Z,0.10
2022-12-11T06:35:42.459Z,0.10
2022-12-11T06:39:05.737Z,0.00
2022-12-11T06:42:30.576Z,0.00
2022-12-11T06:46:00.632Z,0.00
2022-12-11T06:49:26.525Z,0.00
2022-12-11T06:52:51.529Z,0.00
2022-12-11T06:56:16.455Z,0.00
2022-12-11T06:59:39.745Z,0.00
2022-12-11T07:03:04.412Z,0.00
2022-12-11T07:06:31.322Z,0.00
2022-12-11T07:09:54.260Z,0.00
2022-12-11T07:13:17.267Z,0.00
2022-12-11T07:16:40.293Z,0.00
2022-12-11T07:20:05.730Z,0.00
2022-12-11T07:23:29.540Z,0.00
2022-12-11T07:26:52.797Z,0.00
2022-12-11T07:30:15.783Z,0.00
2022-12-11T07:33:38.934Z,0.00
2022-12-11T07:37:03.261Z,0.00
2022-12-11T07:40:26.220Z,0.00
2022-12-11T07:43:49.192Z,0.00
2022-12-11T07:47:12.180Z,0.00
2022-12-11T07:50:39.604Z,0.00
2022-12-11T07:54:06.979Z,0.00
2022-12-11T07:57:30.113Z,0.00
2022-12-11T08:00:53.562Z,0.00
2022-12-11T08:04:18.225Z,0.00
2022-12-11T08:07:41.198Z,0.00
2022-12-11T08:11:06.879Z,0.00
2022-12-11T08:14:37.338Z,0.00
2022-12-11T08:18:00.374Z,0.00
2022-12-11T08:21:25.012Z,0.10
2022-12-11T08:24:48.640Z,0.10
2022-12-11T08:28:13.041Z,0.10
2022-12-11T08:31:36.010Z,0.10
2022-12-11T08:35:02.545Z,0.10
2022-12-11T08:38:27.943Z,0.20
2022-12-11T08:41:51.148Z,0.20
2022-12-11T08:45:15.980Z,0.20
2022-12-11T08:48:40.208Z,0.30
2022-12-11T08:52:04.523Z,0.30
2022-12-11T08:55:27.523Z,0.40
2022-12-11T08:58:50.914Z,0.40
2022-12-11T09:02:15.329Z,0.40
2022-12-11T09:05:40.028Z,0.40
2022-12-11T09:09:03.650Z,0.40
2022-12-11T09:12:27.197Z,0.50
2022-12-11T09:15:50.192Z,0.50
2022-12-11T09:19:16.432Z,0.50
2022-12-11T09:22:39.898Z,0.50
2022-12-11T09:26:05.883Z,0.50
2022-12-11T09:29:28.826Z,0.50
2022-12-11T09:32:53.045Z,0.60
2022-12-11T09:36:17.389Z,0.60
2022-12-11T09:39:40.385Z,0.60
2022-12-11T09:43:14.562Z,0.60
2022-12-11T09:46:38.742Z,0.70
2022-12-11T09:50:08.060Z,0.60
2022-12-11T09:53:36.363Z,0.60
2022-12-11T09:57:08.955Z,0.60
2022-12-11T10:00:39.249Z,0.60
2022-12-11T10:04:16.980Z,0.70
2022-12-11T10:07:47.429Z,0.60
2022-12-11T10:11:33.928Z,0.70
2022-12-11T10:15:15.819Z,0.70
2022-12-11T10:18:39.732Z,0.70
2022-12-11T10:22:03.508Z,0.80
2022-12-11T10:25:30.081Z,0.70
2022-12-11T10:28:54.678Z,0.80
2022-12-11T10:32:25.396Z,0.80
2022-12-11T10:35:51.177Z,0.90
2022-12-11T10:39:17.136Z,1.10
2022-12-11T10:42:45.574Z,1.20
2022-12-11T10:46:17.082Z,1.20
2022-12-11T10:49:44.297Z,1.30
2022-12-11T10:53:07.522Z,1.30
2022-12-11T10:56:32.834Z,1.30
2022-12-11T10:59:57.224Z,1.30
2022-12-11T11:03:24.698Z,1.30
2022-12-11T11:06:48.938Z,1.30
2022-12-11T11:10:18.029Z,1.30
2022-12-11T11:13:40.986Z,1.30
2022-12-11T11:17:04.067Z,1.30
2022-12-11T11:20:31.531Z,1.40
2022-12-11T11:23:55.688Z,1.20
2022-12-11T11:27:29.168Z,1.10
2022-12-11T11:31:04.806Z,1.10
2022-12-11T11:34:30.821Z,1.10
2022-12-11T11:38:06.812Z,1.30
2022-12-11T11:41:35.384Z,1.30
2022-12-11T11:45:05.428Z,1.30
2022-12-11T11:48:38.088Z,1.20
2022-12-11T11:52:09.286Z,1.10
2022-12-11T11:55:42.144Z,1.00
2022-12-11T11:59:12.522Z,0.90
2022-12-11T12:02:35.782Z,0.90
2022-12-11T12:06:10.884Z,1.00
2022-12-11T12:09:48.141Z,1.30
2022-12-11T12:13:48.102Z,1.30
2022-12-11T12:17:18.253Z,1.40
2022-12-11T12:20:49.172Z,1.50
2022-12-11T12:24:25.048Z,1.30
2022-12-11T12:27:57.721Z,1.30
2022-12-11T12:31:39.588Z,1.30
2022-12-11T12:35:14.873Z,1.30
2022-12-11T12:38:51.318Z,1.10
2022-12-11T12:42:23.792Z,1.30
2022-12-11T12:45:54.570Z,1.50
2022-12-11T12:49:31.422Z,1.60
2022-12-11T12:52:56.139Z,1.60
2022-12-11T12:56:19.828Z,1.50
2022-12-11T12:59:42.822Z,1.50
2022-12-11T13:03:15.354Z,1.50
2022-12-11T13:06:42.772Z,1.60
2022-12-11T13:10:09.642Z,1.60
2022-12-11T13:13:37.249Z,1.60
2022-12-11T13:17:23.386Z,1.40
2022-12-11T13:20:51.139Z,1.30
2022-12-11T13:24:24.965Z,1.30
2022-12-11T13:27:49.206Z,1.20
2022-12-11T13:31:45.070Z,1.30
2022-12-11T13:35:14.571Z,1.40
2022-12-11T13:38:38.476Z,1.50
2022-12-11T13:42:06.330Z,1.50
2022-12-11T13:45:34.173Z,1.40
2022-12-11T13:49:00.855Z,1.40
2022-12-11T13:52:27.688Z,1.30
2022-12-11T13:55:57.864Z,1.30
2022-12-11T13:59:29.538Z,1.30
2022-12-11T14:02:54.096Z,1.30
2022-12-11T14:06:19.277Z,1.30
2022-12-11T14:09:46.306Z,1.10
2022-12-11T14:13:18.366Z,1.00
2022-12-11T14:16:42.790Z,0.90
2022-12-11T14:20:08.349Z,0.90
2022-12-11T14:23:32.953Z,0.80
2022-12-11T14:26:56.811Z,0.80
2022-12-11T14:30:24.013Z,0.80
2022-12-11T14:33:51.120Z,0.80
2022-12-11T14:37:19.118Z,0.70
2022-12-11T14:40:47.994Z,0.70
2022-12-11T14:44:16.653Z,0.60
2022-12-11T14:47:43.250Z,0.50
2022-12-11T14:51:13.620Z,0.50
2022-12-11T14:54:42.098Z,0.50
2022-12-11T14:58:08.364Z,0.50
2022-12-11T15:01:33.512Z,0.50
2022-12-11T15:05:18.954Z,0.50
2022-12-11T15:08:43.352Z,0.50
2022-12-11T15:12:12.468Z,0.40
2022-12-11T15:15:45.910Z,0.40
2022-12-11T15:19:19.316Z,0.40
2022-12-11T15:22:45.045Z,0.40
2022-12-11T15:26:09.408Z,0.30
2022-12-11T15:29:36.214Z,0.20
2022-12-11T15:33:22.156Z,0.20
2022-12-11T15:36:45.141Z,0.10
2022-12-11T15:40:09.144Z,0.20
2022-12-11T15:43:38.305Z,0.10
2022-12-11T15:47:01.280Z,0.20
2022-12-11T15:50:26.674Z,0.10
2022-12-11T15:53:49.730Z,0.10
2022-12-11T15:57:17.993Z,0.10
2022-12-11T16:00:42.556Z,0.10
2022-12-11T16:04:05.850Z,0.10
2022-12-11T16:07:28.909Z,0.10
2022-12-11T16:10:57.677Z,0.10
2022-12-11T16:14:20.866Z,0.10
2022-12-11T16:17:45.639Z,0.10
2022-12-11T16:21:08.690Z,0.10
2022-12-11T16:24:32.106Z,0.00
2022-12-11T16:27:57.468Z,0.00
2022-12-11T16:31:20.450Z,0.00
2022-12-11T16:34:45.130Z,0.00
2022-12-11T16:38:09.935Z,0.10
2022-12-11T16:41:33.004Z,0.10
2022-12-11T16:44:55.938Z,0.00
2022-12-11T16:48:19.034Z,0.00
2022-12-11T16:51:43.800Z,0.00
2022-12-11T16:55:07.787Z,0.10
2022-12-11T16:58:30.847Z,0.00
2022-12-11T17:01:53.917Z,0.00
2022-12-11T17:05:16.968Z,0.00
2022-12-11T17:08:42.677Z,0.00
2022-12-11T17:12:06.654Z,0.00
2022-12-11T17:15:29.665Z,0.00
2022-12-11T17:18:53.126Z,0.00
2022-12-11T17:22:16.125Z,0.00
2022-12-11T17:25:42.281Z,0.00
2022-12-11T17:29:05.247Z,-0.10
2022-12-11T17:32:28.208Z,-0.10
2022-12-11T17:35:51.197Z,-0.10
2022-12-11T17:39:14.175Z,-0.10
2022-12-11T17:42:38.494Z,-0.10
2022-12-11T17:46:01.925Z,-0.10
2022-12-11T17:49:25.026Z,-0.10
2022-12-11T17:52:48.028Z,-0.10
2022-12-11T17:56:11.018Z,-0.10
2022-12-11T17:59:35.587Z,-0.10
2022-12-11T18:02:58.811Z,-0.20
2022-12-11T18:06:23.146Z,-0.20
2022-12-11T18:09:46.168Z,-0.20
2022-12-11T18:13:09.236Z,-0.20
2022-12-11T18:16:37.986Z,-0.20
2022-12-11T18:20:01.010Z,-0.20
2022-12-11T18:23:24.801Z,-0.20
2022-12-11T18:26:47.918Z,-0.20
2022-12-11T18:30:14.076Z,-0.20
2022-12-11T18:33:40.251Z,-0.20
2022-12-11T18:37:03.462Z,-0.10
2022-12-11T18:40:26.634Z,-0.10
2022-12-11T18:43:49.673Z,-0.10
2022-12-11T18:47:12.829Z,-0.10
2022-12-11T18:50:37.439Z,-0.10
2022-12-11T18:54:00.721Z,-0.10
2022-12-11T18:57:23.954Z,-0.10
2022-12-11T19:00:47.291Z,-0.10
2022-12-11T19:04:11.135Z,-0.10
2022-12-11T19:07:35.737Z,-0.10
2022-12-11T19:11:01.318Z,-0.10
2022-12-11T19:14:24.604Z,0.00
2022-12-11T19:17:47.759Z,-0.10
2022-12-11T19:21:12.630Z,0.00
2022-12-11T19:24:37.698Z,0.00
2022-12-11T19:28:00.722Z,0.00
2022-12-11T19:31:24.434Z,0.00
2022-12-11T19:34:47.399Z,0.00
2022-12-11T19:38:10.878Z,0.00
2022-12-11T19:41:35.214Z,0.00
2022-12-11T19:44:58.197Z,0.00
2022-12-11T19:48:21.144Z,0.10
2022-12-11T19:51:44.882Z,0.00
2022-12-11T19:55:21.535Z,0.10
2022-12-11T19:58:45.993Z,0.10
2022-12-11T20:02:09.167Z,0.10
2022-12-11T20:05:32.187Z,0.10
2022-12-11T20:08:55.215Z,0.10
2022-12-11T20:12:18.350Z,0.10
2022-12-11T20:15:42.693Z,0.10
2022-12-11T20:19:05.667Z,0.10
2022-12-11T20:22:28.624Z,0.10
2022-12-11T20:25:57.407Z,0.10
2022-12-11T20:29:22.049Z,0.10
2022-12-11T20:32:46.517Z,0.20
2022-12-11T20:36:10.843Z,0.20
2022-12-11T20:39:33.825Z,0.20
2022-12-11T20:42:57.033Z,0.20
2022-12-11T20:46:21.213Z,0.20
2022-12-11T20:49:45.602Z,0.20
2022-12-11T20:53:08.596Z,0.20
2022-12-11T20:56:32.646Z,0.20
2022-12-11T20:59:55.588Z,0.20
2022-12-11T21:03:18.625Z,0.20
2022-12-11T21:06:43.299Z,0.20
2022-12-11T21:10:07.085Z,0.20
2022-12-11T21:13:31.074Z,0.20
2022-12-11T21:16:55.289Z,0.20
2022-12-11T21:20:18.983Z,0.20
2022-12-11T21:23:43.583Z,0.20
2022-12-11T21:27:06.582Z,0.20
2022-12-11T21:30:29.553Z,0.20
2022-12-11T21:33:52.542Z,0.20
2022-12-11T21:37:15.582Z,0.20
2022-12-11T21:40:39.948Z,0.20
2022-12-11T21:45:14.446Z,0.20
2022-12-11T21:47:45.892Z,0.20
2022-12-11T21:51:10.287Z,0.20
2022-12-11T21:54:33.270Z,0.20
2022-12-11T21:57:57.746Z,0.20
2022-12-11T22:01:22.641Z,0.20
2022-12-11T22:04:47.371Z,0.20
2022-12-11T22:08:10.386Z,0.30
2022-12-11T22:11:35.440Z,0.30
2022-12-11T22:14:59.869Z,0.30
2022-12-11T22:18:26.908Z,0.30
2022-12-11T22:21:49.854Z,0.30
2022-12-11T22:25:13.104Z,0.30
2022-12-11T22:28:36.404Z,0.30
2022-12-11T22:32:02.397Z,0.30
2022-12-11T22:35:27.252Z,0.30
2022-12-11T22:38:50.843Z,0.30
2022-12-11T22:42:13.844Z,0.30
2022-12-11T22:45:40.724Z,0.30
2022-12-11T22:49:05.206Z,0.30
2022-12-11T22:52:28.132Z,0.30
2022-12-11T22:55:51.112Z,0.30
2022-12-11T22:59:14.068Z,0.30
2022-12-11T23:02:37.711Z,0.30
2022-12-11T23:06:05.492Z,0.30
2022-12-11T23:09:28.535Z,0.30
2022-12-11T23:12:51.565Z,0.40
2022-12-11T23:16:15.777Z,0.40
2022-12-11T23:19:38.741Z,0.40
2022-12-11T23:23:03.441Z,0.40
2022-12-11T23:26:28.141Z,0.40
2022-12-11T23:29:51.101Z,0.40
2022-12-11T23:33:14.142Z,0.40
2022-12-11T23:36:37.107Z,0.40
2022-12-11T23:40:01.407Z,0.40
2022-12-11T23:43:24.403Z,0.40
2022-12-11T23:46:47.365Z,0.40
2022-12-11T23:50:10.942Z,0.40
2022-12-11T23:53:33.986Z,0.40
2022-12-11T23:56:58.343Z,0.40
